M I D A S
Marine Information and Data Acquisition System
Tripno 1728 of the Zeeleeuw from 2009-07-01 08:36:45 to 2009-07-01 14:22:57
Back to CruiseResearch ActivitiesStationsMapUnderway DataData graphs

EquipmentUnitsComment
TimeDGPSUTC
LatitudeDGPSDM.mWGS84
LongitudeDGPSDM.mWGS84
TemperatureSBE03/SBE38deg celciusITS90
ConductivitySBE21S/mITS90
SalinitySBE21 Practical Salinity Units
ChlorophylAChelsea fluorimeterg/lCalibrated in Aceton
Missing or incorrect values are displayed as -999
Sea surface data collected by the RV Zeeleeuw from 2009-07-01 08:30:22 to 2009-07-01 14:34:10
Time Latitude Longitude Temperature Conductivity Salinity ChlorophylA
2009-07-01 08:31:30 51°13.678 2°55.894 23.9462 0.033049 0.168215 10.526194
2009-07-01 08:32:30 51°13.698 2°55.79 23.9457 0.033152 0.168743 10.526194
2009-07-01 08:33:30 51°13.705 2°55.761 23.805 0.032637 0.166114 10.456545
2009-07-01 08:34:29 51°13.705 2°55.748 23.973 0.035415 0.180367 10.456545
2009-07-01 08:35:27 51°13.76 2°55.718 23.8315 0.034798 0.177177 10.421721
2009-07-01 08:36:27 51°13.874 2°55.612 23.818 0.032637 0.166112 10.352073
2009-07-01 08:37:29 51°14.009 2°55.498 23.8992 0.033357 0.169796 10.352073
2009-07-01 08:38:27 51°14.137 2°55.398 23.9238 0.034181 0.174004 10.317249
2009-07-01 08:39:26 51°14.252 2°55.258 23.8477 0.033666 0.171366 10.282425
2009-07-01 08:40:26 51°14.354 2°55.083 23.8832 0.033563 0.170848 10.247601
2009-07-01 08:41:26 51°14.48 2°54.94 23.893 0.033769 0.171915 10.212777
2009-07-01 08:42:26 51°14.631 2°54.798 23.8925 0.033254 0.169287 10.177953
2009-07-01 08:43:26 51°14.793 2°54.648 23.9101 0.033049 0.168241 10.143129
2009-07-01 08:44:26 51°14.957 2°54.501 23.896 0.033254 0.169302 10.108305
2009-07-01 08:45:26 51°15.122 2°54.346 23.9005 0.033563 0.170864 10.073481
2009-07-01 08:46:26 51°15.284 2°54.189 23.9032 0.032637 0.166153 10.038657
2009-07-01 08:47:26 51°15.45 2°54.038 23.912 0.033563 0.170903 10.003833
2009-07-01 08:48:26 51°15.616 2°53.891 23.9055 0.033152 0.168811 9.969009
2009-07-01 08:49:26 51°15.784 2°53.749 23.8846 0.033049 0.168295 9.934185
2009-07-01 08:50:26 51°15.954 2°53.61 23.9136 0.033254 0.169323 9.899361
2009-07-01 08:51:26 51°16.122 2°53.467 23.9086 0.033152 0.168834 9.864537
2009-07-01 08:52:26 51°16.287 2°53.319 23.9301 0.03346 0.170414 9.864537
2009-07-01 08:53:26 51°16.455 2°53.178 23.9103 0.03346 0.170414 9.829713
2009-07-01 08:54:26 51°16.623 2°53.036 23.9302 0.033049 0.168337 9.794888
2009-07-01 08:55:26 51°16.791 2°52.892 23.9202 0.03346 0.170467 9.760064
2009-07-01 08:56:26 51°16.959 2°52.748 23.931 0.033769 0.172065 9.72524
2009-07-01 08:57:26 51°17.128 2°52.605 23.9387 0.03346 0.170507 9.690416
2009-07-01 08:58:26 51°17.294 2°52.454 23.9515 0.033975 0.17318 9.655592
2009-07-01 08:59:26 51°17.466 2°52.313 23.8971 0.033049 0.168486 9.655592
2009-07-01 09:00:26 51°17.655 2°52.267 23.8059 0.033563 0.171089 10.038657
2009-07-01 09:01:26 51°17.85 2°52.302 23.8491 0.033769 0.172198 10.038657
2009-07-01 09:02:26 51°18.047 2°52.346 23.8516 0.033152 0.169009 9.864537
2009-07-01 09:03:26 51°18.242 2°52.393 23.8587 0.033254 0.169602 9.690416
2009-07-01 09:04:26 51°18.434 2°52.443 23.8731 0.033254 0.169594 9.655592
2009-07-01 09:05:26 51°18.626 2°52.492 23.891 0.033563 0.171232 9.620768
2009-07-01 09:06:26 51°18.819 2°52.542 23.8954 0.033152 0.169104 9.585944
2009-07-01 09:07:26 51°19.019 2°52.59 23.9089 0.033049 0.168632 9.585944
2009-07-01 09:08:26 51°19.221 2°52.641 23.9192 0.032843 0.167579 9.55112
2009-07-01 09:09:26 51°19.424 2°52.697 23.9288 0.033254 0.169718 9.55112
2009-07-01 09:10:26 51°19.627 2°52.749 23.9292 0.033152 0.169204 9.55112
2009-07-01 09:11:26 51°19.831 2°52.805 23.9481 0.033666 0.171853 9.55112
2009-07-01 09:12:26 51°20.036 2°52.862 23.9462 0.03346 0.17083 9.516296
2009-07-01 09:13:26 51°20.239 2°52.919 23.9608 0.032637 0.166637 9.516296
2009-07-01 09:14:26 51°20.439 2°52.98 23.9782 0.033254 0.169791 9.516296
2009-07-01 09:15:26 51°20.639 2°53.049 23.9613 0.032534 0.166126 9.516296
2009-07-01 09:16:26 51°20.837 2°53.114 23.9826 0.033049 0.168774 9.481472
2009-07-01 09:17:26 51°21.035 2°53.182 23.9977 0.03274 0.167198 9.481472
2009-07-01 09:18:26 51°21.235 2°53.248 24.0005 0.03274 0.167231 9.446648
2009-07-01 09:19:26 51°21.434 2°53.309 24.0131 0.033152 0.169367 9.446648
2009-07-01 09:20:26 51°21.634 2°53.368 24.0175 0.032843 0.167813 9.411824
2009-07-01 09:21:26 51°21.835 2°53.427 24.0153 0.032637 0.166766 9.411824
2009-07-01 09:22:26 51°22.035 2°53.492 24.0336 0.032637 0.1668 9.377
2009-07-01 09:23:26 51°22.236 2°53.558 24.0353 0.032431 0.16574 9.377
2009-07-01 09:24:26 51°22.437 2°53.62 24.042 0.032225 0.164727 9.342176
2009-07-01 09:25:26 51°22.639 2°53.678 24.0573 0.032637 0.166854 9.342176
2009-07-01 09:26:26 51°22.842 2°53.735 24.0572 0.032534 0.166358 9.307352
2009-07-01 09:27:26 51°23.046 2°53.8 24.0627 0.031917 0.16323 9.272528
2009-07-01 09:28:26 51°23.252 2°53.86 24.0659 0.031917 0.163242 9.237704
2009-07-01 09:29:26 51°23.456 2°53.921 24.0753 0.03202 0.163813 9.237704
2009-07-01 09:30:26 51°23.659 2°53.988 24.0951 0.032843 0.168054 9.237704
2009-07-01 09:31:26 51°23.863 2°54.056 24.0995 0.032843 0.168088 9.20288
2009-07-01 09:32:26 51°24.068 2°54.122 24.0943 0.032225 0.164924 9.168055
2009-07-01 09:33:26 51°24.273 2°54.191 24.1069 0.03274 0.167622 9.133231
2009-07-01 09:34:26 51°24.481 2°54.249 24.1108 0.032225 0.164988 9.133231
2009-07-01 09:35:26 51°24.689 2°54.301 24.122 0.032431 0.166083 9.098407
2009-07-01 09:36:26 51°24.897 2°54.348 24.1136 0.032637 0.16718 9.063583
2009-07-01 09:37:26 51°25.104 2°54.397 24.1182 0.032637 0.16724 9.063583
2009-07-01 09:38:26 51°25.312 2°54.45 24.1442 0.033049 0.169385 9.028759
2009-07-01 09:39:26 51°25.522 2°54.484 24.1237 0.032225 0.165189 8.959111
2009-07-01 09:40:26 51°25.722 2°54.591 24.0979 0.033255 0.170537 8.959111
2009-07-01 09:41:26 51°25.926 2°54.646 24.1353 0.033049 0.169499 8.959111
2009-07-01 09:42:26 51°26.133 2°54.644 24.1322 0.032843 0.168453 8.924287
2009-07-01 09:43:26 51°26.337 2°54.643 24.1508 0.032843 0.168498 8.854639
2009-07-01 09:44:26 51°26.543 2°54.65 24.1494 0.033152 0.170101 8.819815
2009-07-01 09:45:26 51°26.75 2°54.657 24.1538 0.032534 0.166955 8.784991
2009-07-01 09:46:26 51°26.958 2°54.659 24.1623 0.033152 0.170186 8.750167
2009-07-01 09:47:26 51°27.166 2°54.661 24.1698 0.032123 0.164907 8.715343
2009-07-01 09:48:26 51°27.374 2°54.657 24.1664 0.03202 0.164434 8.680519
2009-07-01 09:49:26 51°27.581 2°54.656 24.1618 0.032431 0.1666 8.645695
2009-07-01 09:50:26 51°27.79 2°54.657 24.1837 0.032843 0.168748 8.610871
2009-07-01 09:51:26 51°28.001 2°54.66 24.1928 0.032534 0.167212 8.576047
2009-07-01 09:52:26 51°28.211 2°54.666 24.1999 0.032637 0.167784 8.541223
2009-07-01 09:53:26 51°28.42 2°54.672 24.2059 0.032431 0.166718 8.506398
2009-07-01 09:54:26 51°28.63 2°54.681 24.2126 0.031711 0.1631 8.471574
2009-07-01 09:55:26 51°28.84 2°54.693 24.2194 0.031814 0.163666 8.401926
2009-07-01 09:56:26 51°29.048 2°54.698 24.2229 0.032431 0.166872 8.401926
2009-07-01 09:57:26 51°29.251 2°54.696 24.2162 0.033357 0.171702 8.367102
2009-07-01 09:58:26 51°29.453 2°54.706 24.2378 0.03274 0.168535 8.297454
2009-07-01 09:59:26 51°29.657 2°54.716 24.2418 0.032431 0.16698 8.26263
2009-07-01 10:00:26 51°29.861 2°54.726 24.2475 0.032123 0.165422 8.227806
2009-07-01 10:01:26 51°30.066 2°54.728 24.2591 0.032946 0.169716 8.158158
2009-07-01 10:02:26 51°30.273 2°54.735 24.2541 0.032431 0.167145 8.158158
2009-07-01 10:03:26 51°30.48 2°54.742 24.2728 0.032843 0.16932 8.08851
2009-07-01 10:04:26 51°30.687 2°54.743 24.2585 0.032843 0.169338 8.053686
2009-07-01 10:05:26 51°30.894 2°54.747 24.2774 0.03274 0.168859 8.018862
2009-07-01 10:06:26 51°31.103 2°54.745 24.274 0.033152 0.17104 7.984038
2009-07-01 10:07:26 51°31.312 2°54.748 24.2864 0.032843 0.169459 7.949214
2009-07-01 10:08:26 51°31.522 2°54.749 24.2952 0.033049 0.170598 7.91439
2009-07-01 10:09:26 51°31.725 2°54.7 24.2865 0.033049 0.170625 7.844741
2009-07-01 10:10:26 51°31.908 2°54.615 24.2957 0.032843 0.169635 7.809917
2009-07-01 10:11:26 51°32.059 2°54.546 24.3128 0.033872 0.174994 7.775093
2009-07-01 10:12:26 51°32.206 2°54.483 24.312 0.033769 0.174482 7.740269
2009-07-01 10:13:26 51°32.349 2°54.427 24.3217 0.033769 0.174562 7.705445
2009-07-01 10:14:26 51°32.457 2°54.388 24.3289 0.034078 0.176195 7.705445
2009-07-01 10:15:26 51°32.541 2°54.358 24.3455 0.034387 0.177941 7.635797
2009-07-01 10:16:26 51°32.586 2°54.3 24.3498 0.034798 0.180149 7.600973
2009-07-01 10:17:26 51°32.587 2°54.249 24.343 0.035416 0.183361 7.566149
2009-07-01 10:18:26 51°32.576 2°54.232 24.3399 0.034078 0.176341 7.531325
2009-07-01 10:19:26 51°32.569 2°54.225 24.3552 0.034592 0.179107 7.496501
2009-07-01 10:20:26 51°32.565 2°54.219 24.351 0.034489 0.17865 7.461677
2009-07-01 10:21:26 51°32.562 2°54.213 24.3581 0.034901 0.180746 7.461677
2009-07-01 10:22:26 51°32.55 2°54.217 24.3603 0.034901 0.180838 7.426853
2009-07-01 10:23:26 51°32.541 2°54.247 24.3643 0.035004 0.181602 7.392029
2009-07-01 10:24:26 51°32.545 2°54.295 24.3706 0.034592 0.179362 7.357205
2009-07-01 10:25:26 51°32.561 2°54.351 24.37 0.033872 0.17558 7.322381
2009-07-01 10:26:26 51°32.575 2°54.416 24.3813 0.03346 0.173472 7.322381
2009-07-01 10:27:26 51°32.579 2°54.487 24.3835 0.034387 0.178316 7.287557
2009-07-01 10:28:26 51°32.577 2°54.56 24.3852 0.033872 0.175644 7.252733
2009-07-01 10:29:26 51°32.566 2°54.629 24.3873 0.033975 0.17624 7.252733
2009-07-01 10:30:26 51°32.548 2°54.696 24.3954 0.033357 0.173021 7.217908
2009-07-01 10:31:26 51°32.527 2°54.759 24.3864 0.033563 0.174123 7.217908
2009-07-01 10:32:26 51°32.502 2°54.817 24.4077 0.03346 0.173613 7.183084
2009-07-01 10:33:26 51°32.476 2°54.876 24.4066 0.034489 0.179005 7.183084
2009-07-01 10:34:26 51°32.448 2°54.941 24.4037 0.033872 0.175807 7.183084
2009-07-01 10:35:26 51°32.413 2°55.01 24.4088 0.034078 0.176924 7.14826
2009-07-01 10:36:26 51°32.373 2°55.086 24.4195 0.033769 0.175384 7.14826
2009-07-01 10:37:26 51°32.324 2°55.175 24.423 0.034078 0.177007 7.14826
2009-07-01 10:38:26 51°32.267 2°55.279 24.4261 0.033255 0.172727 7.113436
2009-07-01 10:39:26 51°32.206 2°55.386 24.4437 0.034078 0.177052 7.113436
2009-07-01 10:40:26 51°32.146 2°55.497 24.4313 0.033769 0.175426 7.113436
2009-07-01 10:41:26 51°32.094 2°55.597 24.4402 0.032843 0.170578 7.113436
2009-07-01 10:42:26 51°32.05 2°55.684 24.444 0.033769 0.175432 7.113436
2009-07-01 10:43:26 51°32.01 2°55.77 24.451 0.033975 0.176545 7.113436
2009-07-01 10:44:26 51°31.976 2°55.842 24.4576 0.033666 0.174928 7.113436
2009-07-01 10:45:26 51°31.955 2°55.9 24.4636 0.033666 0.17495 7.113436
2009-07-01 10:46:26 51°31.941 2°55.947 24.4692 0.033872 0.176035 7.113436
2009-07-01 10:47:26 51°31.932 2°55.988 24.4683 0.03346 0.173902 7.113436
2009-07-01 10:48:26 51°31.925 2°56.023 24.4716 0.03346 0.173891 7.078612
2009-07-01 10:49:26 51°31.919 2°56.055 24.4701 0.033357 0.173414 7.113436
2009-07-01 10:50:26 51°31.912 2°56.085 24.4792 0.034078 0.177199 7.078612
2009-07-01 10:51:26 51°31.908 2°56.115 24.4836 0.03346 0.173991 7.078612
2009-07-01 10:52:26 51°31.903 2°56.145 24.4823 0.033769 0.175646 7.078612
2009-07-01 10:53:26 51°31.9 2°56.175 24.4898 0.033872 0.176201 7.113436
2009-07-01 10:54:26 51°31.896 2°56.202 24.4998 0.033255 0.173059 7.078612
2009-07-01 10:55:26 51°31.892 2°56.23 24.4957 0.032534 0.169291 7.113436
2009-07-01 10:56:26 51°31.89 2°56.258 24.5056 0.033357 0.173625 7.113436
2009-07-01 10:57:26 51°31.887 2°56.286 24.4966 0.033152 0.172539 7.113436
2009-07-01 10:58:26 51°31.885 2°56.312 24.4973 0.032637 0.169858 7.113436
2009-07-01 10:59:26 51°31.886 2°56.331 24.4977 0.03274 0.170397 7.113436
2009-07-01 11:00:26 51°31.887 2°56.343 24.4994 0.032843 0.171003 7.113436
2009-07-01 11:01:26 51°31.89 2°56.35 24.5057 0.032534 0.169369 7.078612
2009-07-01 11:02:26 51°31.89 2°56.37 24.5159 0.032946 0.171569 7.078612
2009-07-01 11:03:26 51°31.861 2°56.48 24.5107 0.031917 0.166232 7.113436
2009-07-01 11:04:26 51°31.78 2°56.608 24.4933 0.034387 0.179222 7.113436
2009-07-01 11:05:26 51°31.718 2°56.688 24.4975 0.03346 0.174348 7.113436
2009-07-01 11:06:26 51°31.639 2°56.623 24.5043 0.034592 0.180329 7.14826
2009-07-01 11:07:26 51°31.582 2°56.463 24.5417 0.038194 0.199356 7.14826
2009-07-01 11:08:26 51°31.521 2°56.295 24.5143 0.035107 0.183024 7.14826
2009-07-01 11:09:26 51°31.511 2°56.181 24.5362 0.036239 0.189032 7.113436
2009-07-01 11:10:26 51°31.521 2°56.122 24.5354 0.036239 0.189127 7.14826
2009-07-01 11:11:26 51°31.532 2°56.087 24.5479 0.036548 0.190708 7.14826
2009-07-01 11:12:26 51°31.539 2°56.067 24.5493 0.03665 0.191297 7.113436
2009-07-01 11:13:26 51°31.546 2°56.052 24.5535 0.036445 0.190289 7.113436
2009-07-01 11:14:26 51°31.552 2°56.039 24.557 0.036959 0.193073 7.113436
2009-07-01 11:15:26 51°31.556 2°56.027 24.5587 0.036548 0.19099 7.113436
2009-07-01 11:16:26 51°31.559 2°56.014 24.5639 0.036548 0.190919 7.113436
2009-07-01 11:17:26 51°31.561 2°56.001 24.5709 0.036651 0.191484 7.113436
2009-07-01 11:18:26 51°31.561 2°55.989 24.5635 0.036136 0.188753 7.113436
2009-07-01 11:19:26 51°31.562 2°55.978 24.5718 0.036651 0.191636 7.14826
2009-07-01 11:20:26 51°31.562 2°55.968 24.5795 0.036239 0.189431 7.113436
2009-07-01 11:21:26 51°31.563 2°55.958 24.5887 0.036548 0.191034 7.14826
2009-07-01 11:22:26 51°31.562 2°55.949 24.5831 0.036548 0.191099 7.14826
2009-07-01 11:23:26 51°31.561 2°55.94 24.5935 0.036651 0.191661 7.113436
2009-07-01 11:24:26 51°31.56 2°55.931 24.5957 0.036239 0.189539 7.14826
2009-07-01 11:25:26 51°31.559 2°55.922 24.5914 0.036445 0.190592 7.14826
2009-07-01 11:26:27 51°31.558 2°55.913 24.6059 0.036445 0.190648 7.14826
2009-07-01 11:27:26 51°31.569 2°55.873 24.5814 0.034901 0.182543 7.14826
2009-07-01 11:28:26 51°31.622 2°55.841 24.6109 0.036445 0.190791 7.14826
2009-07-01 11:29:26 51°31.674 2°55.875 24.6177 0.036959 0.193574 7.14826
2009-07-01 11:30:26 51°31.718 2°55.905 24.6178 0.037268 0.195206 7.14826
2009-07-01 11:31:26 51°31.749 2°55.911 24.626 0.036651 0.191936 7.14826
2009-07-01 11:32:26 51°31.768 2°55.902 24.6336 0.036959 0.193593 7.14826
2009-07-01 11:33:26 51°31.784 2°55.888 24.6336 0.036753 0.192519 7.14826
2009-07-01 11:34:26 51°31.796 2°55.872 24.6421 0.036651 0.192002 7.14826
2009-07-01 11:35:27 51°31.804 2°55.856 24.641 0.036856 0.193133 7.14826
2009-07-01 11:36:26 51°31.811 2°55.841 24.645 0.037062 0.194316 7.14826
2009-07-01 11:37:26 51°31.816 2°55.824 24.65 0.036959 0.193729 7.14826
2009-07-01 11:38:26 51°31.818 2°55.809 24.6449 0.037062 0.194271 7.14826
2009-07-01 11:39:26 51°31.819 2°55.794 24.6491 0.037062 0.194316 7.14826
2009-07-01 11:40:26 51°31.819 2°55.779 24.6498 0.037062 0.194347 7.14826
2009-07-01 11:41:26 51°31.817 2°55.766 24.6596 0.036959 0.193843 7.14826
2009-07-01 11:42:26 51°31.814 2°55.752 24.6551 0.036959 0.193871 7.14826
2009-07-01 11:43:26 51°31.811 2°55.741 24.6624 0.037474 0.196515 7.14826
2009-07-01 11:44:26 51°31.808 2°55.73 24.6606 0.036959 0.193929 7.14826
2009-07-01 11:45:26 51°31.803 2°55.721 24.663 0.036753 0.19284 7.14826
2009-07-01 11:46:26 51°31.801 2°55.705 24.6635 0.036445 0.191243 7.14826
2009-07-01 11:47:26 51°31.814 2°55.667 24.6368 0.034901 0.183003 7.14826
2009-07-01 11:48:26 51°31.861 2°55.663 24.6745 0.036445 0.191268 7.14826
2009-07-01 11:49:26 51°31.904 2°55.731 24.6862 0.037165 0.195171 7.14826
2009-07-01 11:50:26 51°31.95 2°55.815 24.6782 0.036856 0.193551 7.14826
2009-07-01 11:51:26 51°31.983 2°55.898 24.6913 0.037062 0.194669 7.14826
2009-07-01 11:52:26 51°32.006 2°55.956 24.6913 0.037062 0.19466 7.14826
2009-07-01 11:53:26 51°32.02 2°55.978 24.6963 0.037062 0.194701 7.14826
2009-07-01 11:54:26 51°32.022 2°55.974 24.7026 0.037062 0.194688 7.14826
2009-07-01 11:55:26 51°32.02 2°55.964 24.7024 0.037165 0.195187 7.14826
2009-07-01 11:56:26 51°32.016 2°55.95 24.7019 0.037268 0.195798 7.14826
2009-07-01 11:57:26 51°32.01 2°55.935 24.7065 0.037165 0.195267 7.14826
2009-07-01 11:58:27 51°32.003 2°55.922 24.7033 0.036753 0.193089 7.14826
2009-07-01 11:59:26 51°31.997 2°55.912 24.7021 0.037165 0.195338 7.183084
2009-07-01 12:00:26 51°31.989 2°55.902 24.7103 0.037165 0.195341 7.183084
2009-07-01 12:01:26 51°31.983 2°55.891 24.7152 0.037268 0.195859 7.183084
2009-07-01 12:02:26 51°31.977 2°55.881 24.7054 0.037165 0.195405 7.183084
2009-07-01 12:03:26 51°31.97 2°55.869 24.6896 0.036959 0.194288 7.14826
2009-07-01 12:04:26 51°31.964 2°55.858 24.6944 0.037062 0.194864 7.183084
2009-07-01 12:05:27 51°31.957 2°55.846 24.6931 0.037371 0.196574 7.183084
2009-07-01 12:06:26 51°31.95 2°55.834 24.6978 0.037474 0.197125 7.217908
2009-07-01 12:07:26 51°31.943 2°55.822 24.6978 0.038091 0.20049 7.217908
2009-07-01 12:08:26 51°31.935 2°55.81 24.7 0.037885 0.199413 7.217908
2009-07-01 12:09:26 51°31.928 2°55.797 24.706 0.037577 0.197797 7.217908
2009-07-01 12:10:26 51°31.921 2°55.783 24.7057 0.037988 0.199978 7.217908
2009-07-01 12:11:26 51°31.913 2°55.769 24.7089 0.03768 0.198375 7.217908
2009-07-01 12:12:26 51°31.905 2°55.755 24.7109 0.03768 0.198401 7.217908
2009-07-01 12:13:26 51°31.895 2°55.742 24.7079 0.038091 0.200655 7.217908
2009-07-01 12:14:26 51°31.886 2°55.728 24.7121 0.03768 0.198473 7.217908
2009-07-01 12:15:26 51°31.876 2°55.714 24.7222 0.037577 0.197908 7.252733
2009-07-01 12:16:26 51°31.866 2°55.701 24.7243 0.038091 0.200722 7.217908
2009-07-01 12:17:26 51°31.857 2°55.689 24.7234 0.037783 0.199077 7.252733
2009-07-01 12:18:27 51°31.848 2°55.677 24.7253 0.038297 0.201884 7.252733
2009-07-01 12:19:26 51°31.838 2°55.664 24.7391 0.038709 0.204157 7.252733
2009-07-01 12:20:26 51°31.829 2°55.65 24.7309 0.038503 0.20303 7.252733
2009-07-01 12:21:26 51°31.819 2°55.635 24.7458 0.038709 0.204235 7.252733
2009-07-01 12:22:26 51°31.809 2°55.62 24.7448 0.039635 0.209174 7.287557
2009-07-01 12:23:26 51°31.8 2°55.605 24.7483 0.039944 0.210869 7.287557
2009-07-01 12:24:26 51°31.79 2°55.59 24.7511 0.040149 0.212064 7.287557
2009-07-01 12:25:26 51°31.78 2°55.575 24.7484 0.039326 0.207624 7.287557
2009-07-01 12:26:26 51°31.77 2°55.56 24.7513 0.039635 0.209337 7.287557
2009-07-01 12:27:27 51°31.758 2°55.545 24.7592 0.039326 0.207662 7.287557
2009-07-01 12:28:26 51°31.747 2°55.53 24.7636 0.039738 0.209913 7.322381
2009-07-01 12:29:26 51°31.735 2°55.515 24.7676 0.039532 0.20882 7.322381
2009-07-01 12:30:26 51°31.723 2°55.499 24.7646 0.039841 0.210493 7.322381
2009-07-01 12:31:26 51°31.711 2°55.482 24.7715 0.039532 0.208824 7.322381
2009-07-01 12:32:26 51°31.699 2°55.466 24.7743 0.039635 0.209382 7.322381
2009-07-01 12:33:26 51°31.687 2°55.45 24.7813 0.039841 0.210601 7.322381
2009-07-01 12:34:26 51°31.674 2°55.433 24.7808 0.039223 0.207273 7.322381
2009-07-01 12:35:26 51°31.662 2°55.416 24.7877 0.039738 0.209986 7.357205
2009-07-01 12:36:26 51°31.649 2°55.398 24.7808 0.039738 0.210126 7.357205
2009-07-01 12:37:26 51°31.638 2°55.379 24.7934 0.039223 0.207411 7.357205
2009-07-01 12:38:27 51°31.626 2°55.361 24.7883 0.039635 0.209661 7.357205
2009-07-01 12:39:27 51°31.614 2°55.342 24.7941 0.039223 0.20739 7.357205
2009-07-01 12:40:26 51°31.602 2°55.322 24.7986 0.039326 0.20797 7.357205
2009-07-01 12:41:27 51°31.592 2°55.284 24.7973 0.039635 0.209602 7.357205
2009-07-01 12:42:26 51°31.589 2°55.216 24.8053 0.039429 0.208546 7.357205
2009-07-01 12:43:26 51°31.589 2°55.133 24.8182 0.040458 0.214075 7.392029
2009-07-01 12:44:26 51°31.577 2°55.066 24.8232 0.040458 0.214054 7.392029
2009-07-01 12:45:26 51°31.557 2°55.014 24.8241 0.040355 0.213615 7.392029
2009-07-01 12:46:26 51°31.533 2°54.975 24.828 0.040664 0.215199 7.392029
2009-07-01 12:47:26 51°31.507 2°54.948 24.826 0.041178 0.217981 7.392029
2009-07-01 12:48:27 51°31.481 2°54.933 24.8264 0.04087 0.216335 7.426853
2009-07-01 12:49:26 51°31.455 2°54.927 24.8348 0.041384 0.219081 7.392029
2009-07-01 12:50:26 51°31.425 2°54.922 24.823 0.041899 0.221858 7.426853
2009-07-01 12:51:26 51°31.39 2°54.92 24.8299 0.042002 0.222349 7.426853
2009-07-01 12:52:27 51°31.349 2°54.917 24.8318 0.041076 0.217391 7.426853
2009-07-01 12:53:26 51°31.306 2°54.911 24.8361 0.041796 0.221293 7.426853
2009-07-01 12:54:26 51°31.259 2°54.899 24.8316 0.042002 0.222334 7.426853
2009-07-01 12:55:26 51°31.206 2°54.881 24.8429 0.043031 0.227828 7.461677
2009-07-01 12:56:26 51°31.088 2°54.854 24.8498 0.045295 0.239988 7.461677
2009-07-01 12:57:26 51°30.916 2°54.821 24.8229 0.040973 0.216657 7.461677
2009-07-01 12:58:26 51°30.71 2°54.777 24.824 0.04087 0.21605 7.496501
2009-07-01 12:59:26 51°30.502 2°54.734 24.8307 0.040149 0.212141 7.496501
2009-07-01 13:00:26 51°30.297 2°54.669 24.8367 0.040252 0.212658 7.496501
2009-07-01 13:01:26 51°30.095 2°54.598 24.8333 0.04087 0.215931 7.496501
2009-07-01 13:02:26 51°29.89 2°54.534 24.8329 0.039223 0.207042 7.496501
2009-07-01 13:03:26 51°29.685 2°54.471 24.8366 0.042105 0.222456 7.531325
2009-07-01 13:04:26 51°29.48 2°54.401 24.8422 0.040149 0.211944 7.531325
2009-07-01 13:05:26 51°29.274 2°54.33 24.8307 0.040973 0.216296 7.566149
2009-07-01 13:06:26 51°29.069 2°54.257 24.8376 0.038914 0.205257 7.566149
2009-07-01 13:07:26 51°28.864 2°54.189 24.8162 0.038812 0.204626 7.600973
2009-07-01 13:08:26 51°28.659 2°54.115 24.8271 0.041487 0.218889 7.600973
2009-07-01 13:09:26 51°28.455 2°54.038 24.8452 0.041693 0.219897 7.635797
2009-07-01 13:10:26 51°28.249 2°53.961 24.8152 0.040767 0.214878 7.670621
2009-07-01 13:11:26 51°28.044 2°53.888 24.8267 0.039738 0.20926 7.670621
2009-07-01 13:12:26 51°27.841 2°53.811 24.8528 0.041693 0.219656 7.705445
2009-07-01 13:13:27 51°27.635 2°53.731 24.836 0.040561 0.213458 7.740269
2009-07-01 13:14:26 51°27.434 2°53.653 24.8391 0.041384 0.217791 7.740269
2009-07-01 13:15:26 51°27.229 2°53.578 24.8478 0.041384 0.217719 7.775093
2009-07-01 13:16:26 51°27.023 2°53.497 24.8606 0.041693 0.219278 7.809917
2009-07-01 13:17:26 51°26.817 2°53.418 24.8515 0.042825 0.225328 7.809917
2009-07-01 13:18:26 51°26.613 2°53.344 24.8536 0.042002 0.220786 7.844741
2009-07-01 13:19:26 51°26.409 2°53.266 24.8642 0.04231 0.222435 7.879566
2009-07-01 13:20:27 51°26.202 2°53.183 24.8589 0.041796 0.219653 7.91439
2009-07-01 13:21:26 51°25.997 2°53.119 24.8325 0.041178 0.216279 7.949214
2009-07-01 13:22:26 51°25.789 2°53.061 24.8635 0.042722 0.224517 7.984038
2009-07-01 13:23:26 51°25.582 2°53.016 24.8613 0.03912 0.205231 8.018862
2009-07-01 13:24:26 51°25.375 2°53.044 24.875 0.040355 0.211687 8.053686
2009-07-01 13:25:26 51°25.168 2°53.081 24.8686 0.038709 0.202913 8.08851
2009-07-01 13:26:26 51°24.96 2°53.097 24.8754 0.040664 0.213243 8.123334
2009-07-01 13:27:26 51°24.749 2°53.073 24.8714 0.039223 0.205596 8.158158
2009-07-01 13:28:27 51°24.533 2°53.038 24.871 0.040458 0.212109 8.192982
2009-07-01 13:29:26 51°24.326 2°53.006 24.8605 0.038503 0.201658 8.26263
2009-07-01 13:30:26 51°24.113 2°52.977 24.8769 0.038812 0.203309 8.297454
2009-07-01 13:31:27 51°23.895 2°52.947 24.8768 0.039841 0.208747 8.332278
2009-07-01 13:32:26 51°23.684 2°52.913 24.8944 0.040252 0.210845 8.367102
2009-07-01 13:33:26 51°23.471 2°52.875 24.8665 0.037165 0.194616 8.43675
2009-07-01 13:34:26 51°23.257 2°52.835 24.8882 0.039944 0.209345 8.471574
2009-07-01 13:35:27 51°23.04 2°52.795 24.8976 0.040149 0.210346 8.506398
2009-07-01 13:36:26 51°22.829 2°52.761 24.9089 0.039635 0.207647 8.576047
2009-07-01 13:37:26 51°22.617 2°52.727 24.9043 0.039532 0.206934 8.610871
2009-07-01 13:38:27 51°22.401 2°52.685 24.9188 0.041384 0.216832 8.645695
2009-07-01 13:39:26 51°22.19 2°52.648 24.8936 0.03768 0.197139 8.680519
2009-07-01 13:40:26 51°21.977 2°52.608 24.9182 0.039738 0.20804 8.715343
2009-07-01 13:41:26 51°21.766 2°52.566 24.9137 0.040664 0.212938 8.784991
2009-07-01 13:42:26 51°21.559 2°52.526 24.9271 0.040149 0.210156 8.784991
2009-07-01 13:43:26 51°21.351 2°52.493 24.9133 0.040149 0.210125 8.819815
2009-07-01 13:44:26 51°21.145 2°52.46 24.9067 0.038503 0.201319 8.889463
2009-07-01 13:45:27 51°20.935 2°52.423 24.9283 0.039738 0.207862 8.924287
2009-07-01 13:46:27 51°20.728 2°52.38 24.9269 0.040046 0.209473 8.959111
2009-07-01 13:47:26 51°20.524 2°52.352 24.9462 0.040252 0.210516 8.993935
2009-07-01 13:48:26 51°20.315 2°52.349 24.9365 0.038503 0.201197 9.028759
2009-07-01 13:49:26 51°20.106 2°52.352 24.9329 0.03912 0.204405 9.063583
2009-07-01 13:50:26 51°19.896 2°52.35 24.9665 0.040664 0.212655 9.063583
2009-07-01 13:51:26 51°19.686 2°52.349 24.9564 0.040046 0.209222 9.133231
2009-07-01 13:52:27 51°19.473 2°52.347 24.9463 0.03912 0.204389 9.133231
2009-07-01 13:53:27 51°19.265 2°52.341 24.9393 0.039223 0.204893 9.168055
2009-07-01 13:54:27 51°19.057 2°52.338 24.9581 0.038709 0.202131 9.20288
2009-07-01 13:55:26 51°18.852 2°52.338 24.9643 0.040149 0.209744 9.20288
2009-07-01 13:56:26 51°18.642 2°52.341 24.9803 0.04087 0.213573 9.237704
2009-07-01 13:57:26 51°18.434 2°52.35 24.9857 0.040458 0.211338 9.237704
2009-07-01 13:58:27 51°18.221 2°52.359 24.9933 0.040664 0.212443 9.272528
2009-07-01 13:59:27 51°18.012 2°52.365 24.9756 0.040149 0.209685 9.272528
2009-07-01 14:00:26 51°17.806 2°52.373 24.9694 0.039841 0.208003 9.307352
2009-07-01 14:01:27 51°17.592 2°52.376 24.979 0.039532 0.206305 9.307352
2009-07-01 14:02:26 51°17.384 2°52.385 25.0122 0.040458 0.211217 9.307352
2009-07-01 14:03:27 51°17.173 2°52.419 25.0009 0.04087 0.213412 9.342176
2009-07-01 14:04:26 51°16.971 2°52.461 25.0433 0.04231 0.221075 9.342176
2009-07-01 14:05:26 51°16.773 2°52.544 25.0052 0.039017 0.203492 9.342176
2009-07-01 14:06:26 51°16.575 2°52.63 25.0189 0.040046 0.208922 9.342176
2009-07-01 14:07:26 51°16.378 2°52.715 25.0298 0.039532 0.206177 9.342176
2009-07-01 14:08:26 51°16.182 2°52.801 25.046 0.040767 0.212703 9.342176
2009-07-01 14:09:26 51°15.99 2°52.899 25.0351 0.03912 0.203962 9.342176
2009-07-01 14:10:27 51°15.802 2°53.019 25.0715 0.043031 0.224599 9.342176
2009-07-01 14:11:26 51°15.624 2°53.146 25.0371 0.039635 0.20661 9.342176
2009-07-01 14:12:26 51°15.444 2°53.275 25.1007 0.044369 0.231758 9.307352
2009-07-01 14:13:27 51°15.276 2°53.434 25.069 0.042207 0.220196 9.307352
2009-07-01 14:14:26 51°15.157 2°53.589 25.0853 0.045809 0.23933 9.307352
2009-07-01 14:15:27 51°15.092 2°53.729 25.0743 0.043339 0.226141 9.307352
2009-07-01 14:16:26 51°15.045 2°53.842 25.0949 0.045398 0.237037 9.307352
2009-07-01 14:17:27 51°15.009 2°53.946 25.1049 0.0455 0.237499 9.272528
2009-07-01 14:18:27 51°14.977 2°54.043 25.094 0.045192 0.235822 9.237704
2009-07-01 14:19:27 51°14.938 2°54.145 25.1113 0.046221 0.241199 9.272528
2009-07-01 14:20:26 51°14.867 2°54.279 25.1277 0.046118 0.240609 9.237704
2009-07-01 14:21:26 51°14.759 2°54.445 25.1293 0.047559 0.248185 9.237704
2009-07-01 14:22:27 51°14.615 2°54.625 25.1128 0.046941 0.244879 9.20288
2009-07-01 14:23:27 51°14.469 2°54.825 25.112 0.044986 0.234367 9.168055
2009-07-01 14:24:27 51°14.346 2°55.06 25.1612 0.043648 0.227117 9.168055
2009-07-01 14:25:26 51°14.258 2°55.241 25.114 0.038914 0.202002 9.133231
2009-07-01 14:26:27 51°14.156 2°55.371 25.1327 0.038297 0.198682 9.133231
2009-07-01 14:27:26 51°14.039 2°55.466 25.136 0.036959 0.191559 9.098407
2009-07-01 14:28:27 51°13.929 2°55.547 25.1352 0.037371 0.193718 9.098407
2009-07-01 14:29:27 51°13.822 2°55.632 25.1316 0.035724 0.184982 9.063583
2009-07-01 14:30:31 51°13.741 2°55.746 25.1311 0.036136 0.187054 9.028759
2009-07-01 14:31:30 51°13.697 2°55.832 25.1514 0.035827 0.185397 9.028759
2009-07-01 14:32:31 51°13.672 2°55.917 25.1544 0.035621 0.184262 8.993935
2009-07-01 14:33:31 51°13.662 2°55.954 25.1677 0.036136 0.186913 8.959111